Time;durP1;ratioP1;P1;durP2;ratioP2;P2;SDS_P1;SDS_P2;PMS_P1;PMS_P2;Temp;Humidity;BMP_temperature;BMP_pressure;BME280_temperature;BME280_humidity;BME280_pressure;Samples;Min_cycle;Max_cycle;Signal;HPM_P1;HPM_P2
2021/04/17 00:01:52;;;;;;;13.40;4.03;;;3.10;99.90;;;;;;5019557;28;20781;-62
2021/04/17 00:04:18;;;;;;;8.68;4.00;;;3.10;99.90;;;;;;5019707;28;20049;-61
2021/04/17 00:06:44;;;;;;;9.93;3.85;;;3.10;99.90;;;;;;5018667;28;20037;-61
2021/04/17 00:09:13;;;;;;;13.68;4.10;;;3.00;99.90;;;;;;5021422;28;20095;-61
2021/04/17 00:11:43;;;;;;;12.18;3.88;;;3.10;99.90;;;;;;5013962;28;20683;-61
2021/04/17 00:14:14;;;;;;;7.85;3.67;;;3.00;99.90;;;;;;5018933;28;20033;-61
2021/04/17 00:16:40;;;;;;;9.73;3.92;;;2.80;99.90;;;;;;5016682;28;20045;-61
2021/04/17 00:19:06;;;;;;;10.45;4.13;;;2.70;99.90;;;;;;5020351;28;20068;-61
2021/04/17 00:21:32;;;;;;;11.05;3.65;;;2.70;99.90;;;;;;5016777;28;20057;-61
2021/04/17 00:24:00;;;;;;;11.02;4.60;;;2.60;99.90;;;;;;5020613;28;20075;-61
2021/04/17 00:26:26;;;;;;;11.77;4.47;;;2.60;99.90;;;;;;5018851;28;20025;-61
2021/04/17 00:28:52;;;;;;;10.68;3.83;;;2.60;99.90;;;;;;5020238;28;20084;-62
2021/04/17 00:31:18;;;;;;;15.73;3.78;;;2.70;99.90;;;;;;5016024;28;20584;-61
2021/04/17 00:33:44;;;;;;;13.13;3.40;;;2.70;99.90;;;;;;5018892;28;20030;-62
2021/04/17 00:36:09;;;;;;;9.32;3.28;;;2.60;99.90;;;;;;5017639;28;20036;-62
2021/04/17 00:38:35;;;;;;;8.00;3.30;;;2.50;99.90;;;;;;5018954;28;20599;-61
2021/04/17 00:41:01;;;;;;;8.85;4.03;;;2.40;99.90;;;;;;5017233;28;20026;-62
2021/04/17 00:43:28;;;;;;;9.07;3.53;;;2.50;99.90;;;;;;5019038;28;20025;-62
2021/04/17 00:45:54;;;;;;;8.52;3.38;;;2.40;99.90;;;;;;5018939;28;20029;-61
2021/04/17 00:48:20;;;;;;;11.65;3.97;;;2.40;99.90;;;;;;5020161;28;20044;-61
2021/04/17 00:50:47;;;;;;;10.60;3.70;;;2.30;99.90;;;;;;5015087;28;20491;-62
2021/04/17 00:53:13;;;;;;;11.23;3.92;;;2.30;99.90;;;;;;5019396;28;20033;-62
2021/04/17 00:55:39;;;;;;;11.77;3.67;;;2.30;99.90;;;;;;5018898;28;20106;-61
2021/04/17 00:58:06;;;;;;;13.10;3.78;;;2.20;99.90;;;;;;5019487;28;20061;-61
2021/04/17 01:00:35;;;;;;;9.35;3.90;;;2.30;99.90;;;;;;5015969;28;20036;-61
2021/04/17 01:03:14;;;;;;;10.75;4.00;;;2.20;99.90;;;;;;5018296;28;20059;-61
2021/04/17 01:05:43;;;;;;;9.15;3.60;;;2.10;99.90;;;;;;5016272;28;20073;-61
2021/04/17 01:08:18;;;;;;;10.98;3.85;;;2.10;99.90;;;;;;5020428;28;20064;-61
2021/04/17 01:10:52;;;;;;;10.32;4.53;;;2.00;99.90;;;;;;5013786;28;20026;-61
2021/04/17 01:13:19;;;;;;;8.98;3.30;;;1.90;99.90;;;;;;5020109;28;20037;-62
2021/04/17 01:15:46;;;;;;;13.75;4.25;;;1.90;99.90;;;;;;5015951;28;20041;-61
2021/04/17 01:18:14;;;;;;;8.02;4.07;;;1.80;99.90;;;;;;5018240;28;20067;-61
2021/04/17 01:20:46;;;;;;;19.55;4.35;;;1.80;99.90;;;;;;5015649;28;20516;-61
2021/04/17 01:23:37;;;;;;;12.77;3.90;;;1.80;99.90;;;;;;5018739;28;20454;-62
2021/04/17 01:26:09;;;;;;;10.57;3.97;;;1.80;99.90;;;;;;5018036;28;20064;-61
2021/04/17 01:28:39;;;;;;;10.45;3.63;;;1.80;99.90;;;;;;5017809;28;20067;-62
2021/04/17 01:31:08;;;;;;;12.00;4.15;;;1.80;99.90;;;;;;5018332;28;20033;-61
2021/04/17 01:33:37;;;;;;;10.25;4.20;;;1.70;99.90;;;;;;5016146;28;20064;-61
2021/04/17 01:36:05;;;;;;;14.85;4.53;;;1.70;99.90;;;;;;5016734;28;20025;-61
2021/04/17 01:38:45;;;;;;;10.88;4.60;;;1.60;99.90;;;;;;5018135;28;20040;-61
2021/04/17 01:41:16;;;;;;;12.48;4.38;;;1.60;99.90;;;;;;5017972;28;20485;-61
2021/04/17 01:43:46;;;;;;;13.45;4.20;;;1.60;99.90;;;;;;5017356;28;20037;-61
2021/04/17 01:46:16;;;;;;;12.25;4.35;;;1.50;99.90;;;;;;5017345;28;20037;-61
2021/04/17 01:48:44;;;;;;;11.75;4.35;;;1.50;99.90;;;;;;5015858;28;20037;-61
2021/04/17 01:51:10;;;;;;;12.82;4.97;;;1.40;99.90;;;;;;5015268;28;20155;-61
2021/04/17 01:53:40;;;;;;;12.65;4.07;;;1.30;99.90;;;;;;5014705;28;20079;-62
2021/04/17 01:56:08;;;;;;;12.15;4.72;;;1.30;99.90;;;;;;5017046;28;20144;-61
2021/04/17 01:58:38;;;;;;;12.18;4.20;;;1.30;99.90;;;;;;5017257;28;20519;-62
2021/04/17 02:01:04;;;;;;;11.85;4.50;;;1.30;99.90;;;;;;5015953;28;20040;-61
2021/04/17 02:03:30;;;;;;;13.32;4.32;;;1.30;99.90;;;;;;5016552;28;20392;-61
2021/04/17 02:05:56;;;;;;;11.15;4.57;;;1.30;99.90;;;;;;5010461;28;20520;-61
2021/04/17 02:08:22;;;;;;;11.38;4.57;;;1.30;99.90;;;;;;5017817;28;20056;-61
2021/04/17 02:10:50;;;;;;;13.82;4.90;;;1.30;99.90;;;;;;5017262;28;20033;-61
2021/04/17 02:13:17;;;;;;;14.20;4.75;;;1.20;99.90;;;;;;5014572;28;20147;-61
2021/04/17 02:15:44;;;;;;;12.00;4.88;;;1.30;99.90;;;;;;5019061;28;21029;-62
2021/04/17 02:18:19;;;;;;;13.80;6.93;;;1.30;99.90;;;;;;5016811;28;20468;-61
2021/04/17 02:20:57;;;;;;;11.40;5.15;;;1.30;99.90;;;;;;5014758;28;20049;-61
2021/04/17 02:23:24;;;;;;;18.88;5.93;;;1.30;99.90;;;;;;5015175;28;20560;-61
2021/04/17 02:25:50;;;;;;;13.52;5.13;;;1.30;99.90;;;;;;5017708;28;20048;-62
2021/04/17 02:28:16;;;;;;;12.15;5.25;;;1.20;99.90;;;;;;5018385;28;20037;-64
2021/04/17 02:30:42;;;;;;;15.07;5.55;;;1.20;99.90;;;;;;5016805;28;20040;-61
2021/04/17 02:33:08;;;;;;;10.95;5.53;;;1.20;99.90;;;;;;5015791;28;20613;-61
2021/04/17 02:35:34;;;;;;;15.85;5.25;;;1.20;99.90;;;;;;5017687;28;20032;-61
2021/04/17 02:37:59;;;;;;;13.45;5.38;;;1.10;99.90;;;;;;5014864;28;20156;-61
2021/04/17 02:40:26;;;;;;;15.43;5.85;;;1.10;99.90;;;;;;5018807;28;20090;-61
2021/04/17 02:42:52;;;;;;;14.20;5.85;;;1.10;99.90;;;;;;5017696;28;20036;-62
2021/04/17 02:45:17;;;;;;;16.58;5.90;;;1.20;99.90;;;;;;5016204;28;20037;-62
2021/04/17 02:47:43;;;;;;;12.65;5.55;;;1.20;99.90;;;;;;5014345;28;20033;-61
2021/04/17 02:50:10;;;;;;;12.18;5.13;;;1.10;99.90;;;;;;5017092;28;20045;-61
2021/04/17 02:52:36;;;;;;;12.55;4.78;;;1.10;99.90;;;;;;5014543;28;20783;-61
2021/04/17 02:55:02;;;;;;;16.15;5.65;;;1.10;99.90;;;;;;5018399;28;20033;-61
2021/04/17 02:57:28;;;;;;;11.57;5.03;;;1.00;99.90;;;;;;5016119;28;20493;-61
2021/04/17 02:59:54;;;;;;;12.52;5.32;;;1.00;99.90;;;;;;5016726;28;20042;-61
2021/04/17 03:02:19;;;;;;;12.30;5.32;;;1.00;99.90;;;;;;5017013;28;20022;-61
2021/04/17 03:04:45;;;;;;;13.45;5.00;;;1.00;99.90;;;;;;5013221;28;20776;-62
2021/04/17 03:07:11;;;;;;;11.27;4.47;;;1.00;99.90;;;;;;5015241;28;20017;-61
2021/04/17 03:09:37;;;;;;;13.25;5.90;;;1.00;99.90;;;;;;5016936;28;20074;-62
2021/04/17 03:12:03;;;;;;;10.13;4.65;;;1.00;99.90;;;;;;5016110;28;20184;-61
2021/04/17 03:14:29;;;;;;;9.90;4.95;;;1.00;99.90;;;;;;5015199;28;20038;-61
2021/04/17 03:16:55;;;;;;;12.93;5.15;;;1.10;99.90;;;;;;5023033;28;20754;-61
2021/04/17 03:19:21;;;;;;;13.50;5.10;;;1.10;99.90;;;;;;5019203;28;20589;-61
2021/04/17 03:21:46;;;;;;;12.32;4.63;;;1.10;99.90;;;;;;5018990;28;20045;-62
2021/04/17 03:24:12;;;;;;;13.00;5.10;;;1.20;99.90;;;;;;5019168;28;20092;-61
2021/04/17 03:26:38;;;;;;;16.17;6.05;;;1.30;99.90;;;;;;5012914;28;20684;-62
2021/04/17 03:29:04;;;;;;;12.75;4.93;;;1.30;99.90;;;;;;5020018;28;20060;-61
2021/04/17 03:31:30;;;;;;;14.77;5.55;;;1.30;99.90;;;;;;5017988;28;20064;-61
2021/04/17 03:33:55;;;;;;;12.77;4.70;;;1.40;99.90;;;;;;5020798;28;20033;-61
2021/04/17 03:36:22;;;;;;;14.30;5.40;;;1.40;99.90;;;;;;5019133;28;20436;-61
2021/04/17 03:38:48;;;;;;;12.10;4.50;;;1.40;99.90;;;;;;5017445;28;20484;-61
2021/04/17 03:41:14;;;;;;;10.50;5.13;;;1.40;99.90;;;;;;5020447;28;20041;-61
2021/04/17 03:43:39;;;;;;;10.98;5.07;;;1.40;99.90;;;;;;5020605;28;20111;-61
2021/04/17 03:46:05;;;;;;;13.10;5.53;;;1.50;99.90;;;;;;5020393;28;20045;-61
2021/04/17 03:48:31;;;;;;;12.88;5.10;;;1.50;99.90;;;;;;5018838;28;20464;-61
2021/04/17 03:50:58;;;;;;;14.90;5.53;;;1.60;99.90;;;;;;5016946;28;20041;-61
2021/04/17 03:53:23;;;;;;;14.70;5.40;;;1.70;99.90;;;;;;5018739;28;20112;-61
2021/04/17 03:55:49;;;;;;;9.93;4.78;;;1.70;99.90;;;;;;5015024;28;20395;-61
2021/04/17 03:58:15;;;;;;;17.65;5.13;;;1.70;99.90;;;;;;5017544;28;20103;-61
2021/04/17 04:00:41;;;;;;;12.60;5.00;;;1.70;99.90;;;;;;5016548;28;20033;-61
2021/04/17 04:03:07;;;;;;;9.45;5.38;;;1.60;99.90;;;;;;5019664;28;20673;-61
2021/04/17 04:05:33;;;;;;;10.15;5.00;;;1.70;99.90;;;;;;5018224;28;20511;-61
2021/04/17 04:07:58;;;;;;;13.93;5.88;;;1.90;99.90;;;;;;5021337;28;20045;-61
2021/04/17 04:10:24;;;;;;;12.52;4.65;;;2.00;99.90;;;;;;5018679;28;20040;-61
2021/04/17 04:12:50;;;;;;;8.02;4.05;;;2.00;99.90;;;;;;5018215;28;20572;-61
2021/04/17 04:15:17;;;;;;;11.52;4.78;;;2.00;99.90;;;;;;5016327;28;20029;-61
2021/04/17 04:17:45;;;;;;;13.30;5.10;;;1.90;99.90;;;;;;5016479;28;20026;-61
2021/04/17 04:20:11;;;;;;;16.30;4.82;;;1.80;99.90;;;;;;5019261;28;20060;-61
2021/04/17 04:22:38;;;;;;;11.35;4.80;;;1.70;99.90;;;;;;5018028;28;20454;-61
2021/04/17 04:25:06;;;;;;;12.93;5.20;;;1.80;99.90;;;;;;5017707;28;20088;-62
2021/04/17 04:27:31;;;;;;;11.50;5.20;;;1.80;99.90;;;;;;5018068;28;20699;-61
2021/04/17 04:29:57;;;;;;;16.02;5.45;;;1.80;99.90;;;;;;5017409;28;20049;-62
2021/04/17 04:32:23;;;;;;;12.88;5.10;;;1.70;99.90;;;;;;5018683;28;20096;-62
2021/04/17 04:34:49;;;;;;;14.43;5.18;;;1.60;99.90;;;;;;5017189;28;20045;-61
2021/04/17 04:37:15;;;;;;;9.65;4.90;;;1.50;99.90;;;;;;5016921;28;20029;-61
2021/04/17 04:39:41;;;;;;;10.57;4.57;;;1.50;99.90;;;;;;5020268;28;20504;-61
2021/04/17 04:42:07;;;;;;;12.25;4.60;;;1.50;99.90;;;;;;5018529;28;20080;-64
2021/04/17 04:44:33;;;;;;;9.75;4.78;;;1.50;99.90;;;;;;5019093;28;20115;-62
2021/04/17 04:46:58;;;;;;;13.68;5.07;;;1.50;99.90;;;;;;5014954;28;20109;-61
2021/04/17 04:49:24;;;;;;;9.82;4.40;;;1.60;99.90;;;;;;5018309;28;20045;-61
2021/04/17 04:51:50;;;;;;;12.35;5.07;;;1.60;99.90;;;;;;5013337;28;20041;-61
2021/04/17 04:54:16;;;;;;;10.50;5.00;;;1.60;99.90;;;;;;5017875;28;20068;-61
2021/04/17 04:56:41;;;;;;;10.90;5.50;;;1.70;99.90;;;;;;5014809;28;20080;-61
2021/04/17 04:59:07;;;;;;;15.77;5.50;;;1.80;99.90;;;;;;5015361;28;20117;-61
2021/04/17 05:01:33;;;;;;;12.30;4.82;;;1.90;99.90;;;;;;5014210;28;20025;-61
2021/04/17 05:03:59;;;;;;;12.55;5.60;;;2.00;99.90;;;;;;5017597;28;20068;-61
2021/04/17 05:06:25;;;;;;;14.25;5.63;;;2.10;99.90;;;;;;5010681;28;20061;-61
2021/04/17 05:08:50;;;;;;;13.80;6.07;;;2.20;99.90;;;;;;5016363;28;20060;-62
2021/04/17 05:11:16;;;;;;;10.23;5.38;;;2.20;99.90;;;;;;5016356;28;20132;-61
2021/04/17 05:13:42;;;;;;;15.15;5.47;;;2.40;99.90;;;;;;5010516;28;20033;-61
2021/04/17 05:16:08;;;;;;;14.82;5.63;;;2.40;99.90;;;;;;5011660;28;20034;-62
2021/04/17 05:18:35;;;;;;;9.55;4.45;;;2.50;99.90;;;;;;5019712;28;20026;-61
2021/04/17 05:21:01;;;;;;;11.70;5.57;;;2.50;99.90;;;;;;5016872;28;20061;-62
2021/04/17 05:23:26;;;;;;;17.25;5.50;;;2.60;99.90;;;;;;5015538;28;20083;-62
2021/04/17 05:25:53;;;;;;;13.38;5.57;;;2.60;99.90;;;;;;5013100;28;20075;-62
2021/04/17 05:28:18;;;;;;;15.63;7.28;;;2.70;99.90;;;;;;5013459;28;20033;-62
2021/04/17 05:30:44;;;;;;;23.35;10.27;;;2.70;99.90;;;;;;5014445;28;20079;-62
2021/04/17 05:33:10;;;;;;;27.98;10.82;;;2.80;99.90;;;;;;5013141;28;20025;-62
2021/04/17 05:35:36;;;;;;;19.90;6.65;;;2.90;99.90;;;;;;5015935;28;20037;-63
2021/04/17 05:38:02;;;;;;;15.65;7.47;;;2.90;99.90;;;;;;5017194;28;20029;-62
2021/04/17 05:40:28;;;;;;;18.27;7.43;;;3.00;99.90;;;;;;5016067;28;20128;-62
2021/04/17 05:42:53;;;;;;;15.63;7.00;;;3.00;99.90;;;;;;5016089;28;20055;-62
2021/04/17 05:45:19;;;;;;;19.88;8.98;;;3.20;99.90;;;;;;5016599;28;20045;-62
2021/04/17 05:47:45;;;;;;;18.10;8.32;;;3.30;99.90;;;;;;5014328;28;20021;-62
2021/04/17 05:50:11;;;;;;;14.88;7.15;;;3.40;99.90;;;;;;5012555;28;20474;-62
2021/04/17 05:52:37;;;;;;;11.13;6.35;;;3.50;99.90;;;;;;5017411;28;20026;-63
2021/04/17 05:55:04;;;;;;;11.02;6.47;;;3.70;99.90;;;;;;5013624;28;20037;-62
2021/04/17 05:57:30;;;;;;;17.08;6.80;;;3.70;99.90;;;;;;5015018;28;20037;-62
2021/04/17 05:59:56;;;;;;;15.52;6.15;;;3.80;99.90;;;;;;5017481;28;20590;-62
2021/04/17 06:02:23;;;;;;;13.32;6.45;;;3.90;99.90;;;;;;5018567;28;20037;-63
2021/04/17 06:04:49;;;;;;;12.82;6.20;;;4.00;99.90;;;;;;5016363;28;20115;-63
2021/04/17 06:07:15;;;;;;;18.38;6.88;;;4.10;99.90;;;;;;5015244;28;20833;-62
2021/04/17 06:09:41;;;;;;;17.30;6.90;;;4.20;99.90;;;;;;5015908;28;20067;-62
2021/04/17 06:12:07;;;;;;;13.80;6.22;;;4.20;99.90;;;;;;5015043;28;20065;-60
2021/04/17 06:14:33;;;;;;;14.25;5.97;;;4.30;99.90;;;;;;5015816;28;20598;-60
2021/04/17 06:16:58;;;;;;;14.55;6.50;;;4.50;99.90;;;;;;5016082;28;20021;-60
2021/04/17 06:19:24;;;;;;;12.82;5.78;;;4.60;99.90;;;;;;5014188;28;20095;-61
2021/04/17 06:21:50;;;;;;;15.38;7.03;;;4.60;99.90;;;;;;5009193;28;20061;-61
2021/04/17 06:24:16;;;;;;;16.80;7.15;;;4.80;99.90;;;;;;5009859;28;20769;-61
2021/04/17 06:26:42;;;;;;;12.95;6.70;;;4.80;99.90;;;;;;5013982;28;20030;-61
2021/04/17 06:29:08;;;;;;;14.00;5.80;;;5.00;99.90;;;;;;5012622;28;20030;-61
2021/04/17 06:31:34;;;;;;;13.63;6.15;;;5.10;99.90;;;;;;5014196;28;20045;-62
2021/04/17 06:34:00;;;;;;;14.25;6.50;;;5.20;99.90;;;;;;5012852;28;20029;-61
2021/04/17 06:36:26;;;;;;;10.45;5.57;;;5.40;99.90;;;;;;5013247;28;20124;-61
2021/04/17 06:38:52;;;;;;;15.23;6.30;;;5.60;99.90;;;;;;5017461;28;20044;-61
2021/04/17 06:41:21;;;;;;;15.15;6.30;;;5.70;99.90;;;;;;5014976;28;21020;-61
2021/04/17 06:43:48;;;;;;;12.65;6.25;;;5.90;99.90;;;;;;5011933;28;20100;-62
2021/04/17 06:46:14;;;;;;;16.45;6.30;;;6.10;99.90;;;;;;5013419;28;20033;-61
2021/04/17 06:48:41;;;;;;;11.90;5.45;;;6.40;99.90;;;;;;5012862;28;20060;-62
2021/04/17 06:51:16;;;;;;;10.73;5.07;;;6.80;99.90;;;;;;5015548;28;20832;-62
2021/04/17 06:53:43;;;;;;;10.02;5.95;;;7.20;99.90;;;;;;5012694;28;20072;-62
2021/04/17 06:56:10;;;;;;;10.45;5.82;;;7.70;99.90;;;;;;5007666;28;20146;-62
2021/04/17 06:58:38;;;;;;;9.15;5.25;;;8.20;99.90;;;;;;5011384;28;20108;-61
2021/04/17 07:01:04;;;;;;;9.95;4.82;;;8.70;99.90;;;;;;5007635;28;20037;-61
2021/04/17 07:03:30;;;;;;;12.73;4.85;;;8.90;99.90;;;;;;5012178;28;20780;-61
2021/04/17 07:05:55;;;;;;;10.73;4.88;;;9.10;99.90;;;;;;5008611;28;20205;-61
2021/04/17 07:08:22;;;;;;;10.07;4.60;;;9.10;99.90;;;;;;5015418;28;20025;-61
2021/04/17 07:10:47;;;;;;;9.40;4.50;;;9.20;99.90;;;;;;5008248;28;20030;-61
2021/04/17 07:13:15;;;;;;;12.32;5.18;;;9.20;99.90;;;;;;5012597;28;22582;-66
2021/04/17 07:15:43;;;;;;;9.98;4.25;;;9.20;99.90;;;;;;5013843;28;20667;-65
2021/04/17 07:18:30;;;;;;;9.20;3.85;;;9.00;99.90;;;;;;5009521;28;20026;-65
2021/04/17 07:20:59;;;;;;;9.00;3.95;;;8.90;99.90;;;;;;5013900;28;20049;-66
2021/04/17 07:23:45;;;;;;;8.10;3.70;;;8.70;99.90;;;;;;5016193;28;20057;-67
2021/04/17 07:26:17;;;;;;;8.88;4.38;;;8.60;99.90;;;;;;5016312;28;20770;-66
2021/04/17 07:29:14;;;;;;;8.82;4.57;;;8.60;99.90;;;;;;5018904;28;20037;-66
2021/04/17 07:31:49;;;;;;;17.13;4.28;;;8.60;99.90;;;;;;5017920;28;20087;-67
2021/04/17 07:34:18;;;;;;;7.32;4.20;;;8.60;99.90;;;;;;5017725;28;20039;-67
2021/04/17 07:36:52;;;;;;;7.53;4.20;;;8.60;99.90;;;;;;5016162;28;20108;-66
2021/04/17 07:39:38;;;;;;;6.25;4.25;;;8.70;99.90;;;;;;5017660;28;20033;-66
2021/04/17 07:42:13;;;;;;;9.25;4.65;;;8.70;99.90;;;;;;5017931;28;20835;-67
2021/04/17 07:44:45;;;;;;;9.73;3.95;;;8.80;99.90;;;;;;5016808;28;20064;-67
2021/04/17 07:47:12;;;;;;;10.85;3.88;;;8.90;99.90;;;;;;5017261;28;20028;-64
2021/04/17 07:49:39;;;;;;;10.25;4.40;;;9.00;99.90;;;;;;5017055;28;20049;-65
2021/04/17 07:52:15;;;;;;;9.98;4.40;;;9.10;99.90;;;;;;5016237;28;20034;-65
2021/04/17 07:55:03;;;;;;;9.10;4.75;;;9.10;99.90;;;;;;5016478;28;20441;-65
2021/04/17 07:57:44;;;;;;;11.43;4.50;;;9.20;99.90;;;;;;5015859;28;20029;-65
2021/04/17 08:00:19;;;;;;;8.15;4.03;;;9.30;99.90;;;;;;5018434;28;20156;-65
2021/04/17 08:02:51;;;;;;;10.73;4.55;;;9.50;99.90;;;;;;5020587;28;20029;-65
2021/04/17 08:05:18;;;;;;;10.88;4.95;;;9.60;99.90;;;;;;5017558;28;20049;-65
2021/04/17 08:07:44;;;;;;;10.43;3.88;;;9.70;99.90;;;;;;5020959;28;20037;-65
2021/04/17 08:10:13;;;;;;;11.73;3.85;;;9.90;99.90;;;;;;5019394;28;20072;-65
2021/04/17 08:12:41;;;;;;;6.60;3.95;;;10.00;99.90;;;;;;5019859;28;20128;-64
2021/04/17 08:15:23;;;;;;;12.68;4.70;;;10.20;99.90;;;;;;5021116;28;20080;-65
2021/04/17 08:17:50;;;;;;;8.43;3.83;;;10.40;99.90;;;;;;5020191;28;20075;-66
2021/04/17 08:20:17;;;;;;;10.85;4.13;;;10.60;99.90;;;;;;5018975;28;20168;-65
2021/04/17 08:22:47;;;;;;;8.02;4.22;;;10.80;99.90;;;;;;5020347;28;20571;-66
2021/04/17 08:25:13;;;;;;;14.05;4.38;;;11.20;99.90;;;;;;5018905;28;20485;-66
2021/04/17 08:27:39;;;;;;;8.23;3.40;;;11.50;99.90;;;;;;5016921;28;20199;-65
2021/04/17 08:30:07;;;;;;;7.07;3.20;;;11.90;99.90;;;;;;5020084;28;20248;-66
2021/04/17 08:32:34;;;;;;;10.05;2.92;;;12.50;99.90;;;;;;5019507;28;20140;-66
2021/04/17 08:35:03;;;;;;;6.80;3.00;;;12.90;99.90;;;;;;5019205;28;20037;-66
2021/04/17 08:37:33;;;;;;;4.45;2.75;;;12.90;99.90;;;;;;5020783;28;20018;-66
2021/04/17 08:39:59;;;;;;;;;;;13.00;99.90;;;;;;5018729;28;20073;-66
2021/04/17 08:42:40;;;;;;;7.72;3.65;;;13.00;99.90;;;;;;5021186;28;20016;-65
2021/04/17 08:45:17;;;;;;;13.45;5.93;;;13.30;99.90;;;;;;5016827;28;20060;-66
2021/04/17 08:47:45;;;;;;;6.70;3.58;;;13.40;99.90;;;;;;5021398;28;20037;-66
2021/04/17 08:50:40;;;;;;;4.72;1.90;;;13.80;99.90;;;;;;5017890;28;20065;-67
2021/04/17 08:53:16;;;;;;;5.40;2.05;;;13.50;98.10;;;;;;5018169;28;20144;-66
2021/04/17 08:55:49;;;;;;;5.95;1.70;;;13.50;97.20;;;;;;5019434;28;20029;-66
2021/04/17 08:58:23;;;;;;;5.90;1.88;;;13.60;95.10;;;;;;5016713;28;20029;-66
2021/04/17 09:00:51;;;;;;;5.03;2.00;;;13.40;92.70;;;;;;5018538;28;20128;-66
2021/04/17 09:03:40;;;;;;;5.90;2.17;;;12.90;93.10;;;;;;5018002;28;20026;-66
2021/04/17 09:06:28;;;;;;;5.07;2.03;;;13.20;94.10;;;;;;5018493;28;20076;-66
2021/04/17 09:09:15;;;;;;;4.72;1.83;;;13.30;93.20;;;;;;5017962;28;20045;-66
2021/04/17 09:11:43;;;;;;;7.35;1.90;;;13.20;91.70;;;;;;5017644;28;20765;-66
2021/04/17 09:14:33;;;;;;;3.30;1.70;;;13.20;92.60;;;;;;5016664;28;20095;-66
2021/04/17 09:17:02;;;;;;;5.63;2.28;;;13.50;92.40;;;;;;5021203;28;20065;-66
2021/04/17 09:19:49;;;;;;;5.33;1.70;;;13.60;91.60;;;;;;5018079;28;20033;-66
2021/04/17 09:22:24;;;;;;;2.88;1.60;;;13.80;93.20;;;;;;5019692;28;21380;-66
2021/04/17 09:25:03;;;;;;;8.68;1.67;;;14.10;90.60;;;;;;5017852;28;20037;-66
2021/04/17 09:27:30;;;;;;;6.28;2.25;;;14.00;90.70;;;;;;5019483;28;20711;-66
2021/04/17 09:30:06;;;;;;;5.75;1.67;;;13.90;93.80;;;;;;5019071;28;20052;-66
2021/04/17 09:32:37;;;;;;;3.83;1.73;;;14.30;92.70;;;;;;5018595;28;20029;-67
2021/04/17 09:35:18;;;;;;;5.10;1.90;;;14.40;92.00;;;;;;5017632;28;20029;-67
2021/04/17 09:37:46;;;;;;;4.63;2.00;;;14.80;91.40;;;;;;5034070;28;20682;-68
2021/04/17 09:40:13;;;;;;;5.90;1.77;;;15.30;92.00;;;;;;5017894;28;20033;-67
2021/04/17 09:42:40;;;;;;;2.58;1.50;;;15.60;80.70;;;;;;5017380;28;20041;-67
2021/04/17 09:45:10;;;;;;;4.68;1.77;;;15.70;77.60;;;;;;5020009;28;20041;-67
2021/04/17 09:47:36;;;;;;;3.60;1.60;;;15.50;74.90;;;;;;5019198;28;20044;-67
2021/04/17 09:50:19;;;;;;;4.63;1.55;;;15.40;75.80;;;;;;5016374;28;20037;-67
2021/04/17 09:52:45;;;;;;;3.58;1.73;;;15.30;74.10;;;;;;5017595;28;20040;-67
2021/04/17 09:55:11;;;;;;;11.85;6.55;;;15.10;76.10;;;;;;5019703;28;20025;-66
2021/04/17 09:57:48;;;;;;;6.90;2.28;;;14.90;75.80;;;;;;5016009;28;20079;-67
2021/04/17 10:00:15;;;;;;;4.50;2.13;;;15.20;82.30;;;;;;5017243;28;20033;-67
2021/04/17 10:02:47;;;;;;;3.83;2.20;;;15.70;80.80;;;;;;5019604;28;20087;-68
2021/04/17 10:05:15;;;;;;;6.80;2.03;;;16.30;77.90;;;;;;5017345;28;22309;-68
2021/04/17 10:07:47;;;;;;;5.63;2.03;;;16.50;75.00;;;;;;5019819;28;20948;-68
2021/04/17 10:10:14;;;;;;;4.95;1.52;;;16.70;80.20;;;;;;5016449;28;20037;-68
2021/04/17 10:12:53;;;;;;;5.78;1.30;;;16.90;77.00;;;;;;5010375;28;20028;-68
2021/04/17 10:15:21;;;;;;;;;;;17.00;76.90;;;;;;5013178;28;20061;-69
2021/04/17 10:17:51;;;;;;;3.63;1.42;;;17.10;69.20;;;;;;5014372;28;19916;-69
2021/04/17 10:20:17;;;;;;;4.18;0.80;;;17.10;65.20;;;;;;5011679;28;20571;-69
2021/04/17 10:22:57;;;;;;;2.65;0.90;;;16.70;67.10;;;;;;5013436;28;20053;-69
2021/04/17 10:25:35;;;;;;;8.52;1.40;;;16.50;65.60;;;;;;5012101;28;20064;-69
2021/04/17 10:28:31;;;;;;;5.00;1.67;;;16.30;65.50;;;;;;5013147;28;20075;-69
2021/04/17 10:31:20;;;;;;;1.63;1.17;;;16.20;66.30;;;;;;5010468;28;20577;-69
2021/04/17 10:33:48;;;;;;;9.32;1.33;;;16.30;67.30;;;;;;5015335;28;20081;-69
2021/04/17 10:36:17;;;;;;;3.05;0.82;;;16.10;67.20;;;;;;5015503;28;20415;-69
2021/04/17 10:38:44;;;;;;;3.70;1.10;;;16.20;67.30;;;;;;5012249;28;20038;-69
2021/04/17 10:41:18;;;;;;;2.10;0.90;;;16.40;66.70;;;;;;5010459;28;20038;-68
2021/04/17 10:43:44;;;;;;;4.55;1.35;;;16.70;67.80;;;;;;5008478;28;20033;-68
2021/04/17 10:46:10;;;;;;;2.13;0.88;;;17.00;66.40;;;;;;5013144;28;20851;-69
2021/04/17 10:48:46;;;;;;;6.25;1.27;;;17.00;65.70;;;;;;5011419;28;20038;-67
2021/04/17 10:51:15;;;;;;;2.75;1.13;;;17.20;70.30;;;;;;5012324;28;20036;-67
2021/04/17 10:53:43;;;;;;;2.25;1.10;;;17.80;66.60;;;;;;5009902;28;20740;-67
2021/04/17 10:56:20;;;;;;;5.90;1.48;;;17.80;64.70;;;;;;5009756;28;20044;-68
2021/04/17 10:58:55;;;;;;;1.38;0.80;;;18.00;64.80;;;;;;5013050;28;20079;-68
2021/04/17 11:01:26;;;;;;;1.90;0.80;;;18.30;63.60;;;;;;5015459;28;20917;-68
2021/04/17 11:04:00;;;;;;;4.07;1.05;;;18.40;63.30;;;;;;5007466;28;20033;-68
2021/04/17 11:06:35;;;;;;;3.10;1.20;;;18.30;62.00;;;;;;5013754;28;20034;-68
2021/04/17 11:09:10;;;;;;;4.97;1.23;;;18.50;61.40;;;;;;5025459;28;20025;-68
2021/04/17 11:11:49;;;;;;;2.50;1.40;;;18.90;66.10;;;;;;5010955;28;20039;-69
2021/04/17 11:14:24;;;;;;;3.63;1.10;;;19.20;63.70;;;;;;5006564;28;20036;-68
2021/04/17 11:16:52;;;;;;;4.20;1.48;;;19.20;59.20;;;;;;5013432;28;20033;-68
2021/04/17 11:19:29;;;;;;;4.25;1.40;;;18.70;59.50;;;;;;5013481;28;20033;-68
2021/04/17 11:22:08;;;;;;;3.33;1.15;;;18.30;61.20;;;;;;5014490;28;20037;-68
2021/04/17 11:24:34;;;;;;;3.25;1.08;;;18.10;62.80;;;;;;5015054;28;20132;-68
2021/04/17 11:27:00;;;;;;;2.95;1.17;;;18.20;64.20;;;;;;5016720;28;20041;-68
2021/04/17 11:29:26;;;;;;;4.18;1.30;;;18.50;62.30;;;;;;5013171;28;20034;-68
2021/04/17 11:31:52;;;;;;;5.15;1.17;;;18.70;62.70;;;;;;5013550;28;20022;-67
2021/04/17 11:34:18;;;;;;;3.95;1.45;;;18.70;60.00;;;;;;5012926;28;20038;-67
2021/04/17 11:36:44;;;;;;;2.50;1.00;;;18.40;59.60;;;;;;5019170;28;20124;-67
2021/04/17 11:39:10;;;;;;;3.47;1.15;;;17.70;60.40;;;;;;5015579;28;20037;-67
2021/04/17 11:41:36;;;;;;;3.67;1.13;;;17.40;60.20;;;;;;5016749;28;20025;-69
2021/04/17 11:44:02;;;;;;;2.63;1.00;;;17.50;63.40;;;;;;5012672;28;20045;-69
2021/04/17 11:46:28;;;;;;;5.75;1.00;;;17.70;60.10;;;;;;5011655;28;20029;-69
2021/04/17 11:48:54;;;;;;;3.38;0.90;;;17.80;58.40;;;;;;5015795;28;20025;-68
2021/04/17 11:51:20;;;;;;;3.58;0.98;;;17.60;57.30;;;;;;5014537;28;20029;-68
2021/04/17 11:53:46;;;;;;;2.33;1.00;;;17.60;57.70;;;;;;5017107;28;20132;-68
2021/04/17 11:56:13;;;;;;;6.07;1.17;;;17.50;58.00;;;;;;5009797;28;20041;-71
2021/04/17 11:58:39;;;;;;;3.33;0.85;;;17.50;54.90;;;;;;5013204;28;20037;-73
2021/04/17 12:01:05;;;;;;;5.95;1.23;;;17.40;54.70;;;;;;5016757;28;20089;-71
2021/04/17 12:03:31;;;;;;;3.38;1.10;;;17.60;53.60;;;;;;5014817;28;20389;-71
2021/04/17 12:05:57;;;;;;;3.05;0.95;;;17.50;53.20;;;;;;5012828;28;20056;-71
2021/04/17 12:08:24;;;;;;;2.65;0.90;;;17.40;55.10;;;;;;5014901;28;20022;-71
2021/04/17 12:10:50;;;;;;;2.63;0.93;;;17.60;55.60;;;;;;5018003;28;20412;-71
2021/04/17 12:13:16;;;;;;;4.07;1.00;;;17.60;53.90;;;;;;5012905;28;20616;-71
2021/04/17 12:15:45;;;;;;;1.33;0.90;;;17.80;54.90;;;;;;5018157;28;20033;-72
2021/04/17 12:18:12;;;;;;;1.83;0.85;;;18.00;54.30;;;;;;5013371;28;20037;-72
2021/04/17 12:20:37;;;;;;;2.25;0.73;;;17.80;51.90;;;;;;5014169;28;20057;-71
2021/04/17 12:23:03;;;;;;;4.20;0.75;;;17.50;52.70;;;;;;5016564;28;20045;-71
2021/04/17 12:25:29;;;;;;;2.03;1.05;;;17.60;53.90;;;;;;5019497;28;20485;-71
2021/04/17 12:27:55;;;;;;;7.05;1.23;;;17.80;56.10;;;;;;5016598;28;20869;-71
2021/04/17 12:30:22;;;;;;;2.88;1.30;;;18.20;56.20;;;;;;5016754;28;20111;-71
2021/04/17 12:32:48;;;;;;;4.43;1.30;;;18.40;56.40;;;;;;5010000;28;20030;-71
2021/04/17 12:35:15;;;;;;;5.47;1.05;;;18.60;55.00;;;;;;5014601;28;20469;-71
2021/04/17 12:37:44;;;;;;;3.08;1.10;;;18.70;55.80;;;;;;5019085;28;20037;-71
2021/04/17 12:40:11;;;;;;;5.50;1.05;;;18.30;54.00;;;;;;5018881;28;20060;-71
2021/04/17 12:42:37;;;;;;;3.05;1.00;;;18.20;55.80;;;;;;5016204;28;20045;-71
2021/04/17 12:45:05;;;;;;;3.58;0.80;;;18.10;55.80;;;;;;5018319;28;20087;-71
2021/04/17 12:47:31;;;;;;;1.85;1.02;;;18.10;55.60;;;;;;5014169;28;20152;-61
2021/04/17 12:49:57;;;;;;;4.28;1.08;;;18.20;55.00;;;;;;5011852;28;20041;-61
2021/04/17 12:52:23;;;;;;;3.97;1.00;;;18.10;56.60;;;;;;5011800;28;20061;-61
2021/04/17 12:54:49;;;;;;;2.85;0.80;;;18.40;56.00;;;;;;5011093;28;20155;-61
2021/04/17 12:57:15;;;;;;;2.47;0.80;;;18.90;55.50;;;;;;5009272;28;20393;-61